Avondale, CO

5:30 AM MST on March 02, 2015 (GMT -0700)
Pueblo Memorial | Change Station
CLOSE
Current Station
Airport
Location: Pueblo,
Elevation: 4721 ft
Nearby Weather Stations

Elev 4721 ft 38.29 °N, 104.50 °W | Updated 11 minutes ago

Overcast
Overcast
25 °F
Feels Like 19 °F
N
5
Wind Variable Wind from ESE

Today
High -- | Low -- °F
--% Chance of Precip.
Yesterday
High -- | Low -- °F
Precip. -- in
6:28 AM 5:51 PM
Waxing Gibbous, 91% visible
Pressure 30.11 in
Visibility 8.0 miles
Clouds Scattered Clouds 900 ft
Overcast 1600 ft
Windchill 19 °F
Dew Point 22 °F
Humidity 88%
Rainfall 0.00 in
Snow Depth Not available.
UV 0 out of 12
Pollen .70 out of 12
Air Quality Not available.
Flu Activity Not available.
SPECI KPUB 021219Z 12004KT 8SM SCT009 OVC016 M04/M06 A3011 RMK AO2 T10391056

More Conditions Fewer Conditions

Pressure 30.11 in
Visibility 8.0 miles
Clouds Scattered Clouds 900 ft
Overcast 1600 ft
Windchill 19 °F
Dew Point 22 °F
Humidity 88%
Rainfall 0.00 in
Snow Depth Not available.
UV 0 out of 12
Pollen .70 out of 12
Air Quality Not available.
Flu Activity Not available.
SPECI KPUB 021219Z 12004KT 8SM SCT009 OVC016 M04/M06 A3011 RMK AO2 T10391056

More Conditions Fewer Conditions

10-Day Weather Forecast

Almanac

Astronomy

Mar. 02, 2015 Rise Set
Actual Time
Civil Twilight
Nautical Twilight
Astronomical Twilight
Moon
Length of Visible Light
Length of Day
Tomorrow will be .
, % of the Moon is Illuminated

Today's Extremes

State Highs State Lows

Community

WunderPhotos

Upload Photos

1,801,772 photos uploaded!

WunderBlogs® & News

Nearby

Air Quality

  Air Quality AQ Index Pollutant
Not available.

Snow Depth

Station Depth Elevation

Earthquake Activity

City Distance Mag. Time & Date
Minimum magnitude displayed is 2.5.

Coastal Water Temperatures

Place Temperature

Nearby Weather Stations